KFLD/FLD METAR and TAF weather

Enter ICAO airport designator
Station Type Date Time Source
KFLD METAR 2020/09/22 17:53 UTC NOAA

KFLD 221753Z AUTO 29004KT 10SM CLR 24/15 A3012 RMK AO2 SLP198 T02440150 10250 20150 56017


Station Type Date Time Source
KFLD Decoded METAR 2020/09/22 17:53 UTC NOAA

FOND DU LAC COUNTY AIRPORT, WI, United States (KFLD) 43-46N 88-29W 240M
Sep 22, 2020 - 01:53 PM EDT / 2020.09.22 1753 UTC
Wind: from the WNW (290 degrees) at 5 MPH (4 KT):0
Visibility: 10 mile(s):0
Sky conditions: clear
Temperature: 75.9 F (24.4 C)
Dew Point: 59.0 F (15.0 C)
Relative Humidity: 55%
Pressure (altimeter): 30.12 in. Hg (1019 hPa)
Pressure tendency: 0.05 inches (1.7 hPa) lower than three hours ago
ob: KFLD 221753Z AUTO 29004KT 10SM CLR 24/15 A3012 RMK AO2 SLP198 T02440150 10250 20150 56017
cycle: 18

Station Type Date Time Source
KFLD TAF UTC NOAA

Error!

Example: see airport list